createdAt,value
2018-06-04T15:19:17.829Z,8.43
2018-06-04T15:21:45.282Z,11.97
2018-06-04T15:24:12.742Z,9.80
2018-06-04T15:26:40.297Z,13.40
2018-06-04T15:29:07.766Z,14.70
2018-06-04T15:31:35.325Z,13.90
2018-06-04T15:34:02.801Z,13.80
2018-06-04T15:36:30.424Z,18.03
2018-06-04T15:38:57.917Z,12.33
2018-06-04T15:41:25.366Z,12.90
2018-06-04T15:43:52.847Z,12.97
2018-06-04T15:46:20.301Z,15.00
2018-06-04T15:48:47.729Z,15.07
2018-06-04T15:51:15.177Z,14.80
2018-06-04T15:53:42.623Z,15.30
2018-06-04T15:56:10.838Z,17.60
2018-06-04T15:58:38.278Z,15.80
2018-06-04T16:01:05.782Z,15.87
2018-06-04T16:03:33.216Z,13.77
2018-06-04T16:06:00.674Z,14.10
2018-06-04T16:08:28.161Z,14.20
2018-06-04T16:10:55.601Z,16.03
2018-06-04T16:13:23.090Z,12.77
2018-06-04T16:15:50.530Z,14.20
2018-06-04T16:18:17.981Z,15.73
2018-06-04T16:20:45.426Z,12.60
2018-06-04T16:23:13.642Z,14.77
2018-06-04T16:25:41.161Z,15.30
2018-06-04T16:28:08.673Z,16.20
2018-06-04T16:30:36.133Z,15.10
2018-06-04T16:33:03.609Z,12.60
2018-06-04T16:35:31.066Z,13.13
2018-06-04T16:37:58.512Z,14.40
2018-06-04T16:40:25.949Z,15.90
2018-06-04T16:42:53.514Z,14.70
2018-06-04T16:45:20.949Z,13.83
2018-06-04T16:47:49.161Z,13.43
2018-06-04T16:50:16.778Z,16.87
2018-06-04T16:52:44.101Z,13.73
2018-06-04T16:55:11.569Z,13.63
2018-06-04T16:57:39.024Z,14.23
2018-06-04T17:00:06.510Z,13.80
2018-06-04T17:02:33.953Z,15.07
2018-06-04T17:05:01.413Z,14.43
2018-06-04T17:07:28.869Z,13.70
2018-06-04T17:09:56.306Z,12.47
2018-06-04T17:12:23.757Z,12.30
2018-06-04T17:14:51.965Z,12.70
2018-06-04T17:17:19.451Z,12.67
2018-06-04T17:19:46.898Z,11.90
2018-06-04T17:22:14.365Z,11.30
2018-06-04T17:24:41.828Z,11.53
2018-06-04T17:27:09.286Z,11.97
2018-06-04T17:29:36.729Z,12.07
2018-06-04T17:32:04.197Z,11.60
2018-06-04T17:34:31.649Z,11.37
2018-06-04T17:36:59.116Z,13.30
2018-06-04T17:39:26.630Z,12.20
2018-06-04T17:41:54.070Z,13.47
2018-06-04T17:44:21.700Z,11.03
2018-06-04T17:46:49.189Z,12.20
2018-06-04T17:49:16.628Z,10.70
2018-06-04T17:51:44.069Z,14.00
2018-06-04T17:54:11.517Z,11.57
2018-06-04T17:56:40.482Z,11.90
2018-06-04T17:59:08.025Z,11.20
2018-06-04T18:01:35.510Z,12.97
2018-06-04T18:04:03.066Z,11.03
2018-06-04T18:06:30.505Z,12.13
2018-06-04T18:08:57.953Z,12.63
2018-06-04T18:11:25.440Z,10.30
2018-06-04T18:13:52.893Z,11.70
2018-06-04T18:16:20.358Z,10.63
2018-06-04T18:18:47.815Z,10.47
2018-06-04T18:21:15.258Z,11.90
2018-06-04T18:23:42.717Z,10.10
2018-06-04T18:26:10.154Z,9.30
2018-06-04T18:28:38.374Z,10.00
2018-06-04T18:31:05.816Z,9.63
2018-06-04T18:33:33.265Z,10.27
2018-06-04T18:36:00.710Z,9.33
2018-06-04T18:38:28.922Z,10.50
2018-06-04T18:40:56.361Z,9.53
2018-06-04T18:43:24.573Z,9.10
2018-06-04T18:45:52.021Z,10.33
2018-06-04T18:48:19.471Z,10.73
2018-06-04T18:50:46.922Z,10.60
2018-06-04T18:53:15.146Z,9.90
2018-06-04T18:55:42.609Z,10.17
2018-06-04T18:58:10.089Z,10.80
2018-06-04T19:00:37.515Z,10.67
2018-06-04T19:03:05.002Z,10.60
2018-06-04T19:05:32.553Z,11.03
2018-06-04T19:08:00.021Z,11.27
2018-06-04T19:10:27.458Z,11.43
2018-06-04T19:12:54.941Z,10.47
2018-06-04T19:15:22.407Z,10.20
2018-06-04T19:17:49.869Z,10.30
2018-06-04T19:20:17.346Z,11.33
2018-06-04T19:22:44.891Z,13.73
2018-06-04T19:25:12.337Z,12.27
2018-06-04T19:27:39.790Z,10.80
2018-06-04T19:30:07.352Z,10.50
2018-06-04T19:32:34.834Z,10.60
2018-06-04T19:35:02.370Z,11.70
2018-06-04T19:37:29.810Z,10.17
2018-06-04T19:39:58.029Z,10.80
2018-06-04T19:42:25.471Z,10.23
2018-06-04T19:44:52.926Z,12.30
2018-06-04T19:47:21.146Z,10.57
2018-06-04T19:49:48.598Z,12.57
2018-06-04T19:52:16.089Z,10.57
2018-06-04T19:54:43.630Z,10.30
2018-06-04T19:57:11.168Z,10.83
2018-06-04T19:59:38.626Z,10.30
2018-06-04T20:02:06.122Z,10.33
2018-06-04T20:04:33.655Z,10.10
2018-06-04T20:07:01.144Z,9.47
2018-06-04T20:09:28.684Z,9.80
2018-06-04T20:11:56.145Z,8.63
2018-06-04T20:14:24.350Z,9.20
2018-06-04T20:16:51.801Z,9.17
2018-06-04T20:19:19.274Z,9.60
2018-06-04T20:21:46.793Z,9.70
2018-06-04T20:24:14.299Z,9.57
2018-06-04T20:26:41.754Z,9.07
2018-06-04T20:29:09.228Z,9.20
2018-06-04T20:31:36.653Z,8.80
2018-06-04T20:34:04.116Z,9.70
2018-06-04T20:36:31.631Z,9.03
2018-06-04T20:38:59.065Z,8.50
2018-06-04T20:41:26.501Z,8.97
2018-06-04T20:43:53.975Z,9.10
2018-06-04T20:46:23.600Z,13.23
2018-06-04T20:48:53.632Z,13.23
2018-06-04T20:51:22.609Z,14.13
2018-06-04T20:53:50.591Z,13.43
2018-06-04T20:56:18.045Z,14.30
2018-06-04T20:58:45.492Z,13.87
2018-06-04T21:01:12.944Z,15.90
2018-06-04T21:03:40.384Z,15.63
2018-06-04T21:06:08.615Z,16.53
2018-06-04T21:08:36.069Z,15.90
2018-06-04T21:11:03.638Z,16.93
2018-06-04T21:13:31.082Z,16.23
2018-06-04T21:15:58.558Z,16.80
2018-06-04T21:18:26.021Z,16.93
2018-06-04T21:20:54.717Z,15.80
2018-06-04T21:23:22.137Z,16.83
2018-06-04T21:25:49.589Z,17.17
2018-06-04T21:28:17.034Z,17.43
2018-06-04T21:30:45.255Z,18.37
2018-06-04T21:33:12.702Z,17.27
2018-06-04T21:35:40.154Z,17.67
2018-06-04T21:38:07.610Z,17.70
2018-06-04T21:40:35.826Z,17.60
2018-06-04T21:43:03.261Z,17.60
2018-06-04T21:45:30.715Z,18.40
2018-06-04T21:47:58.159Z,18.47
2018-06-04T21:50:26.502Z,17.80
2018-06-04T21:52:53.942Z,17.80
2018-06-04T21:55:21.394Z,17.67
2018-06-04T21:57:48.833Z,17.60
2018-06-04T22:00:17.050Z,17.83
2018-06-04T22:02:44.485Z,18.13
2018-06-04T22:05:11.950Z,19.00
2018-06-04T22:07:39.377Z,17.10
2018-06-04T22:10:06.825Z,17.53
2018-06-04T22:12:34.269Z,18.83
2018-06-04T22:15:01.718Z,19.50
2018-06-04T22:17:29.162Z,17.90
2018-06-04T22:19:56.614Z,18.33
2018-06-04T22:22:24.054Z,19.10
2018-06-04T22:24:52.273Z,19.40
2018-06-04T22:27:19.709Z,19.83
2018-06-04T22:29:47.162Z,18.63
2018-06-04T22:32:15.373Z,19.43
2018-06-04T22:34:42.817Z,18.73
2018-06-04T22:37:10.270Z,20.33
2018-06-04T22:39:37.715Z,18.57
2018-06-04T22:42:05.930Z,20.80
2018-06-04T22:44:33.366Z,19.43
2018-06-04T22:47:01.582Z,19.10
2018-06-04T22:49:29.022Z,19.70
2018-06-04T22:51:56.469Z,19.47
2018-06-04T22:54:23.914Z,20.10
2018-06-04T22:56:52.130Z,21.07
2018-06-04T22:59:19.571Z,19.20
2018-06-04T23:01:47.790Z,20.10
2018-06-04T23:04:15.229Z,19.67
2018-06-04T23:06:42.677Z,18.67
2018-06-04T23:09:10.126Z,19.70
2018-06-04T23:11:38.340Z,19.70
2018-06-04T23:14:05.782Z,17.60
2018-06-04T23:16:33.230Z,19.90
2018-06-04T23:19:02.130Z,18.80
2018-06-04T23:21:29.591Z,18.13
2018-06-04T23:23:57.791Z,19.70
2018-06-04T23:26:25.242Z,19.50
2018-06-04T23:28:52.681Z,18.43
2018-06-04T23:31:20.893Z,18.40
2018-06-04T23:33:48.338Z,19.17
2018-06-04T23:36:15.789Z,17.90
2018-06-04T23:38:43.997Z,20.10
2018-06-04T23:41:11.447Z,18.37
2018-06-04T23:43:38.892Z,18.43
2018-06-04T23:46:07.103Z,19.40
2018-06-04T23:48:34.541Z,19.10
2018-06-04T23:51:01.990Z,18.33
2018-06-04T23:53:30.193Z,18.50
2018-06-04T23:55:57.642Z,18.47
2018-06-04T23:58:25.099Z,19.60
